Terminal Aerodrome Forecast
Issued by NWS

Home | Current Version | Previous Version | Text Only | Print | Product List | Glossary On
Versions: 1 2 3 4 5 6 7 8 9 10 11 12 13 14 15 16 17 18
318
FTUS43 KMQT 260521
TAFCMX
TAF
KCMX 260521Z 2606/2706 10005KT P6SM FEW200
     FM261300 15003KT P6SM BKN120
     FM261700 11007KT P6SM BKN060=

USA.gov is the U.S. government's official web portal to all federal, state and local government web resources and services.